sensor_id;sensor_type;location;lat;lon;timestamp;P1;durP1;ratioP1;P2;durP2;ratioP2
10633;SDS011;5365;51.640;8.106;2022-10-17T00:01:38;8.30;;;7.50;;
10633;SDS011;5365;51.640;8.106;2022-10-17T00:04:00;11.23;;;7.87;;
10633;SDS011;5365;51.640;8.106;2022-10-17T00:06:21;7.87;;;7.07;;
10633;SDS011;5365;51.640;8.106;2022-10-17T00:08:43;8.40;;;7.60;;
10633;SDS011;5365;51.640;8.106;2022-10-17T00:11:06;11.23;;;7.60;;
10633;SDS011;5365;51.640;8.106;2022-10-17T00:13:30;8.97;;;8.17;;
10633;SDS011;5365;51.640;8.106;2022-10-17T00:15:53;8.03;;;7.27;;
10633;SDS011;5365;51.640;8.106;2022-10-17T00:18:15;8.30;;;7.50;;
10633;SDS011;5365;51.640;8.106;2022-10-17T00:20:37;11.07;;;8.47;;
10633;SDS011;5365;51.640;8.106;2022-10-17T00:22:58;9.30;;;8.37;;
10633;SDS011;5365;51.640;8.106;2022-10-17T00:25:20;8.70;;;7.80;;
10633;SDS011;5365;51.640;8.106;2022-10-17T00:27:42;9.37;;;7.60;;
10633;SDS011;5365;51.640;8.106;2022-10-17T00:30:05;8.47;;;7.63;;
10633;SDS011;5365;51.640;8.106;2022-10-17T00:32:27;9.70;;;8.20;;
10633;SDS011;5365;51.640;8.106;2022-10-17T00:34:49;10.00;;;7.97;;
10633;SDS011;5365;51.640;8.106;2022-10-17T00:37:11;8.43;;;7.40;;
10633;SDS011;5365;51.640;8.106;2022-10-17T00:39:33;7.80;;;7.00;;
10633;SDS011;5365;51.640;8.106;2022-10-17T00:41:55;7.63;;;6.93;;
10633;SDS011;5365;51.640;8.106;2022-10-17T00:46:50;8.80;;;7.53;;
10633;SDS011;5365;51.640;8.106;2022-10-17T00:49:12;8.03;;;7.23;;
10633;SDS011;5365;51.640;8.106;2022-10-17T00:51:41;9.07;;;7.07;;
10633;SDS011;5365;51.640;8.106;2022-10-17T00:54:04;8.30;;;7.33;;
10633;SDS011;5365;51.640;8.106;2022-10-17T00:56:26;7.87;;;7.07;;
10633;SDS011;5365;51.640;8.106;2022-10-17T00:58:48;8.40;;;7.60;;
10633;SDS011;5365;51.640;8.106;2022-10-17T01:01:10;8.27;;;7.47;;
10633;SDS011;5365;51.640;8.106;2022-10-17T01:03:32;8.00;;;7.30;;
10633;SDS011;5365;51.640;8.106;2022-10-17T01:05:54;9.63;;;8.00;;
10633;SDS011;5365;51.640;8.106;2022-10-17T01:08:15;8.73;;;7.43;;
10633;SDS011;5365;51.640;8.106;2022-10-17T01:10:51;8.23;;;7.43;;
10633;SDS011;5365;51.640;8.106;2022-10-17T01:18:47;9.80;;;7.67;;
10633;SDS011;5365;51.640;8.106;2022-10-17T01:34:48;8.27;;;7.47;;
10633;SDS011;5365;51.640;8.106;2022-10-17T01:40:06;8.20;;;7.40;;
10633;SDS011;5365;51.640;8.106;2022-10-17T01:45:05;8.17;;;7.17;;
10633;SDS011;5365;51.640;8.106;2022-10-17T01:47:30;8.20;;;7.40;;
10633;SDS011;5365;51.640;8.106;2022-10-17T01:49:59;8.70;;;7.80;;
10633;SDS011;5365;51.640;8.106;2022-10-17T01:52:25;9.77;;;8.23;;
10633;SDS011;5365;51.640;8.106;2022-10-17T01:54:52;8.77;;;7.60;;
10633;SDS011;5365;51.640;8.106;2022-10-17T01:57:19;8.80;;;7.90;;
10633;SDS011;5365;51.640;8.106;2022-10-17T01:59:50;8.77;;;7.53;;
10633;SDS011;5365;51.640;8.106;2022-10-17T02:02:14;8.93;;;7.97;;
10633;SDS011;5365;51.640;8.106;2022-10-17T02:04:37;9.10;;;7.77;;
10633;SDS011;5365;51.640;8.106;2022-10-17T02:07:09;8.70;;;7.80;;
10633;SDS011;5365;51.640;8.106;2022-10-17T02:09:31;8.43;;;7.57;;
10633;SDS011;5365;51.640;8.106;2022-10-17T02:12:07;8.60;;;7.77;;
10633;SDS011;5365;51.640;8.106;2022-10-17T02:15:01;10.30;;;8.37;;
10633;SDS011;5365;51.640;8.106;2022-10-17T02:17:51;8.87;;;7.87;;
10633;SDS011;5365;51.640;8.106;2022-10-17T02:20:34;9.00;;;8.07;;
10633;SDS011;5365;51.640;8.106;2022-10-17T02:23:07;9.40;;;7.97;;
10633;SDS011;5365;51.640;8.106;2022-10-17T02:28:17;11.40;;;8.90;;
10633;SDS011;5365;51.640;8.106;2022-10-17T02:33:27;10.80;;;8.50;;
10633;SDS011;5365;51.640;8.106;2022-10-17T02:35:52;10.87;;;9.00;;
10633;SDS011;5365;51.640;8.106;2022-10-17T02:38:15;10.93;;;8.10;;
10633;SDS011;5365;51.640;8.106;2022-10-17T02:40:38;12.23;;;8.93;;
10633;SDS011;5365;51.640;8.106;2022-10-17T02:43:01;10.33;;;8.67;;
10633;SDS011;5365;51.640;8.106;2022-10-17T02:45:24;12.60;;;9.07;;
10633;SDS011;5365;51.640;8.106;2022-10-17T02:51:03;14.40;;;8.47;;
10633;SDS011;5365;51.640;8.106;2022-10-17T02:53:34;21.03;;;8.70;;
10633;SDS011;5365;51.640;8.106;2022-10-17T02:56:02;13.73;;;6.43;;
10633;SDS011;5365;51.640;8.106;2022-10-17T02:58:29;16.03;;;8.83;;
10633;SDS011;5365;51.640;8.106;2022-10-17T03:00:52;10.47;;;8.90;;
10633;SDS011;5365;51.640;8.106;2022-10-17T03:03:24;10.07;;;8.67;;
10633;SDS011;5365;51.640;8.106;2022-10-17T03:05:47;10.33;;;8.63;;
10633;SDS011;5365;51.640;8.106;2022-10-17T03:08:09;11.33;;;8.50;;
10633;SDS011;5365;51.640;8.106;2022-10-17T03:10:32;9.57;;;8.20;;
10633;SDS011;5365;51.640;8.106;2022-10-17T03:12:53;10.40;;;8.50;;
10633;SDS011;5365;51.640;8.106;2022-10-17T03:15:17;9.97;;;7.53;;
10633;SDS011;5365;51.640;8.106;2022-10-17T03:17:38;9.23;;;7.57;;
10633;SDS011;5365;51.640;8.106;2022-10-17T03:20:02;7.83;;;7.03;;
10633;SDS011;5365;51.640;8.106;2022-10-17T03:22:24;8.97;;;6.53;;
10633;SDS011;5365;51.640;8.106;2022-10-17T03:24:46;7.87;;;6.53;;
10633;SDS011;5365;51.640;8.106;2022-10-17T03:27:08;6.40;;;5.80;;
10633;SDS011;5365;51.640;8.106;2022-10-17T03:29:30;7.80;;;6.73;;
10633;SDS011;5365;51.640;8.106;2022-10-17T03:31:52;7.30;;;6.60;;
10633;SDS011;5365;51.640;8.106;2022-10-17T03:34:13;9.97;;;7.37;;
10633;SDS011;5365;51.640;8.106;2022-10-17T03:36:38;9.60;;;7.80;;
10633;SDS011;5365;51.640;8.106;2022-10-17T03:38:59;10.33;;;8.47;;
10633;SDS011;5365;51.640;8.106;2022-10-17T03:41:21;9.83;;;8.17;;
10633;SDS011;5365;51.640;8.106;2022-10-17T03:43:43;9.93;;;8.10;;
10633;SDS011;5365;51.640;8.106;2022-10-17T03:46:06;8.00;;;7.10;;
10633;SDS011;5365;51.640;8.106;2022-10-17T03:48:28;8.93;;;7.33;;
10633;SDS011;5365;51.640;8.106;2022-10-17T03:50:57;7.57;;;6.77;;
10633;SDS011;5365;51.640;8.106;2022-10-17T03:53:25;8.20;;;7.07;;
10633;SDS011;5365;51.640;8.106;2022-10-17T03:55:47;10.30;;;6.67;;
10633;SDS011;5365;51.640;8.106;2022-10-17T03:58:09;9.73;;;6.80;;
10633;SDS011;5365;51.640;8.106;2022-10-17T04:00:31;7.33;;;6.63;;
10633;SDS011;5365;51.640;8.106;2022-10-17T04:02:53;11.23;;;7.37;;
10633;SDS011;5365;51.640;8.106;2022-10-17T04:05:15;9.17;;;8.03;;
10633;SDS011;5365;51.640;8.106;2022-10-17T04:07:36;10.93;;;8.07;;
10633;SDS011;5365;51.640;8.106;2022-10-17T04:09:59;10.97;;;7.90;;
10633;SDS011;5365;51.640;8.106;2022-10-17T04:12:20;10.10;;;7.87;;
10633;SDS011;5365;51.640;8.106;2022-10-17T04:14:42;8.73;;;7.83;;
10633;SDS011;5365;51.640;8.106;2022-10-17T04:17:04;10.17;;;7.73;;
10633;SDS011;5365;51.640;8.106;2022-10-17T04:19:27;11.67;;;7.97;;
10633;SDS011;5365;51.640;8.106;2022-10-17T04:21:49;8.60;;;7.10;;
10633;SDS011;5365;51.640;8.106;2022-10-17T04:24:11;9.10;;;7.60;;
10633;SDS011;5365;51.640;8.106;2022-10-17T04:26:40;10.33;;;8.20;;
10633;SDS011;5365;51.640;8.106;2022-10-17T04:29:01;9.17;;;7.70;;
10633;SDS011;5365;51.640;8.106;2022-10-17T04:31:23;10.13;;;8.67;;
10633;SDS011;5365;51.640;8.106;2022-10-17T04:33:58;10.10;;;7.57;;
10633;SDS011;5365;51.640;8.106;2022-10-17T04:36:20;8.37;;;7.50;;
10633;SDS011;5365;51.640;8.106;2022-10-17T04:38:43;9.53;;;7.90;;
10633;SDS011;5365;51.640;8.106;2022-10-17T04:41:06;9.00;;;7.47;;
10633;SDS011;5365;51.640;8.106;2022-10-17T04:43:29;8.33;;;7.00;;
10633;SDS011;5365;51.640;8.106;2022-10-17T04:45:51;8.60;;;7.20;;
10633;SDS011;5365;51.640;8.106;2022-10-17T04:48:13;9.87;;;7.83;;
10633;SDS011;5365;51.640;8.106;2022-10-17T04:50:35;8.67;;;7.77;;
10633;SDS011;5365;51.640;8.106;2022-10-17T04:53:18;10.27;;;7.77;;
10633;SDS011;5365;51.640;8.106;2022-10-17T04:55:40;8.93;;;7.23;;
10633;SDS011;5365;51.640;8.106;2022-10-17T04:58:02;8.50;;;7.40;;
10633;SDS011;5365;51.640;8.106;2022-10-17T05:00:24;10.10;;;7.30;;
10633;SDS011;5365;51.640;8.106;2022-10-17T05:02:52;9.97;;;7.53;;
10633;SDS011;5365;51.640;8.106;2022-10-17T05:05:14;9.43;;;7.27;;
10633;SDS011;5365;51.640;8.106;2022-10-17T05:07:38;7.40;;;6.57;;
10633;SDS011;5365;51.640;8.106;2022-10-17T05:10:06;8.80;;;6.87;;
10633;SDS011;5365;51.640;8.106;2022-10-17T05:12:28;9.73;;;7.00;;
10633;SDS011;5365;51.640;8.106;2022-10-17T05:14:50;8.97;;;6.60;;
10633;SDS011;5365;51.640;8.106;2022-10-17T05:17:12;6.37;;;5.77;;
10633;SDS011;5365;51.640;8.106;2022-10-17T05:19:33;7.70;;;5.83;;
10633;SDS011;5365;51.640;8.106;2022-10-17T05:21:55;6.70;;;5.27;;
10633;SDS011;5365;51.640;8.106;2022-10-17T05:24:17;7.90;;;6.53;;
10633;SDS011;5365;51.640;8.106;2022-10-17T05:26:39;9.43;;;7.27;;
10633;SDS011;5365;51.640;8.106;2022-10-17T05:29:01;10.87;;;7.47;;
10633;SDS011;5365;51.640;8.106;2022-10-17T05:31:26;9.70;;;7.83;;
10633;SDS011;5365;51.640;8.106;2022-10-17T05:33:47;9.80;;;8.50;;
10633;SDS011;5365;51.640;8.106;2022-10-17T05:36:09;11.57;;;8.40;;
10633;SDS011;5365;51.640;8.106;2022-10-17T05:38:31;10.53;;;7.77;;
10633;SDS011;5365;51.640;8.106;2022-10-17T05:40:57;16.17;;;8.60;;
10633;SDS011;5365;51.640;8.106;2022-10-17T05:43:19;13.37;;;8.03;;
10633;SDS011;5365;51.640;8.106;2022-10-17T05:45:41;11.87;;;8.87;;
10633;SDS011;5365;51.640;8.106;2022-10-17T05:48:07;11.70;;;8.40;;
10633;SDS011;5365;51.640;8.106;2022-10-17T05:50:29;14.27;;;9.33;;
10633;SDS011;5365;51.640;8.106;2022-10-17T05:53:02;10.03;;;8.10;;
10633;SDS011;5365;51.640;8.106;2022-10-17T05:55:26;11.00;;;8.37;;
10633;SDS011;5365;51.640;8.106;2022-10-17T05:57:48;11.70;;;8.47;;
10633;SDS011;5365;51.640;8.106;2022-10-17T06:00:11;14.53;;;8.13;;
10633;SDS011;5365;51.640;8.106;2022-10-17T06:02:41;11.67;;;8.13;;
10633;SDS011;5365;51.640;8.106;2022-10-17T06:05:06;11.70;;;8.27;;
10633;SDS011;5365;51.640;8.106;2022-10-17T06:07:28;14.63;;;9.07;;
10633;SDS011;5365;51.640;8.106;2022-10-17T06:09:50;13.53;;;8.53;;
10633;SDS011;5365;51.640;8.106;2022-10-17T06:12:12;13.73;;;9.77;;
10633;SDS011;5365;51.640;8.106;2022-10-17T06:14:34;18.40;;;9.27;;
10633;SDS011;5365;51.640;8.106;2022-10-17T06:16:57;13.90;;;9.50;;
10633;SDS011;5365;51.640;8.106;2022-10-17T06:19:20;15.17;;;10.10;;
10633;SDS011;5365;51.640;8.106;2022-10-17T06:21:42;14.27;;;9.37;;
10633;SDS011;5365;51.640;8.106;2022-10-17T06:24:08;16.35;;;9.48;;
10633;SDS011;5365;51.640;8.106;2022-10-17T06:26:33;12.35;;;8.80;;
10633;SDS011;5365;51.640;8.106;2022-10-17T06:28:55;16.67;;;9.15;;
10633;SDS011;5365;51.640;8.106;2022-10-17T06:31:18;13.63;;;9.00;;
10633;SDS011;5365;51.640;8.106;2022-10-17T06:33:40;13.20;;;9.32;;
10633;SDS011;5365;51.640;8.106;2022-10-17T06:36:03;17.08;;;9.45;;
10633;SDS011;5365;51.640;8.106;2022-10-17T06:38:25;14.85;;;9.50;;
10633;SDS011;5365;51.640;8.106;2022-10-17T06:40:50;13.10;;;8.93;;
10633;SDS011;5365;51.640;8.106;2022-10-17T06:43:13;12.50;;;8.60;;
10633;SDS011;5365;51.640;8.106;2022-10-17T06:45:53;12.85;;;8.95;;
10633;SDS011;5365;51.640;8.106;2022-10-17T06:48:35;13.23;;;8.23;;
10633;SDS011;5365;51.640;8.106;2022-10-17T06:51:22;13.32;;;8.15;;
10633;SDS011;5365;51.640;8.106;2022-10-17T06:53:48;12.85;;;8.27;;
10633;SDS011;5365;51.640;8.106;2022-10-17T06:56:42;14.52;;;8.60;;
10633;SDS011;5365;51.640;8.106;2022-10-17T06:59:12;12.10;;;8.30;;
10633;SDS011;5365;51.640;8.106;2022-10-17T07:01:43;11.52;;;7.97;;
10633;SDS011;5365;51.640;8.106;2022-10-17T07:04:06;12.18;;;8.55;;
10633;SDS011;5365;51.640;8.106;2022-10-17T07:06:28;11.60;;;8.57;;
10633;SDS011;5365;51.640;8.106;2022-10-17T07:08:52;11.57;;;8.05;;
10633;SDS011;5365;51.640;8.106;2022-10-17T07:11:17;10.60;;;7.82;;
10633;SDS011;5365;51.640;8.106;2022-10-17T07:13:42;9.20;;;7.82;;
10633;SDS011;5365;51.640;8.106;2022-10-17T07:16:04;10.30;;;8.18;;
10633;SDS011;5365;51.640;8.106;2022-10-17T07:18:28;11.18;;;8.40;;
10633;SDS011;5365;51.640;8.106;2022-10-17T07:20:53;13.05;;;8.68;;
10633;SDS011;5365;51.640;8.106;2022-10-17T07:23:15;10.30;;;8.20;;
10633;SDS011;5365;51.640;8.106;2022-10-17T07:25:37;14.93;;;8.88;;
10633;SDS011;5365;51.640;8.106;2022-10-17T07:28:01;11.98;;;8.35;;
10633;SDS011;5365;51.640;8.106;2022-10-17T07:30:23;12.75;;;7.97;;
10633;SDS011;5365;51.640;8.106;2022-10-17T07:32:54;8.48;;;7.68;;
10633;SDS011;5365;51.640;8.106;2022-10-17T07:35:16;10.70;;;7.63;;
10633;SDS011;5365;51.640;8.106;2022-10-17T07:37:38;9.30;;;7.93;;
10633;SDS011;5365;51.640;8.106;2022-10-17T07:39:59;7.75;;;6.95;;
10633;SDS011;5365;51.640;8.106;2022-10-17T07:42:22;8.98;;;7.05;;
10633;SDS011;5365;51.640;8.106;2022-10-17T07:44:44;8.45;;;7.03;;
10633;SDS011;5365;51.640;8.106;2022-10-17T07:47:07;7.25;;;6.47;;
10633;SDS011;5365;51.640;8.106;2022-10-17T07:49:31;9.50;;;6.88;;
10633;SDS011;5365;51.640;8.106;2022-10-17T07:51:52;6.93;;;6.32;;
10633;SDS011;5365;51.640;8.106;2022-10-17T07:54:14;7.70;;;6.35;;
10633;SDS011;5365;51.640;8.106;2022-10-17T07:56:36;6.53;;;6.00;;
10633;SDS011;5365;51.640;8.106;2022-10-17T07:58:57;6.35;;;5.80;;
10633;SDS011;5365;51.640;8.106;2022-10-17T08:01:19;8.15;;;6.07;;
10633;SDS011;5365;51.640;8.106;2022-10-17T08:03:42;6.38;;;5.80;;
10633;SDS011;5365;51.640;8.106;2022-10-17T08:06:04;8.63;;;6.35;;
10633;SDS011;5365;51.640;8.106;2022-10-17T08:08:26;6.38;;;5.63;;
10633;SDS011;5365;51.640;8.106;2022-10-17T08:10:48;5.97;;;5.45;;
10633;SDS011;5365;51.640;8.106;2022-10-17T08:13:09;7.13;;;5.70;;
10633;SDS011;5365;51.640;8.106;2022-10-17T08:15:31;6.03;;;5.43;;
10633;SDS011;5365;51.640;8.106;2022-10-17T08:17:53;6.63;;;6.03;;
10633;SDS011;5365;51.640;8.106;2022-10-17T08:20:16;6.15;;;5.47;;
10633;SDS011;5365;51.640;8.106;2022-10-17T08:22:37;5.80;;;5.30;;
10633;SDS011;5365;51.640;8.106;2022-10-17T08:24:59;5.38;;;4.88;;
10633;SDS011;5365;51.640;8.106;2022-10-17T08:27:21;5.60;;;5.10;;
10633;SDS011;5365;51.640;8.106;2022-10-17T08:29:45;7.82;;;4.82;;
10633;SDS011;5365;51.640;8.106;2022-10-17T08:32:09;5.75;;;5.00;;
10633;SDS011;5365;51.640;8.106;2022-10-17T08:34:30;5.43;;;4.93;;
10633;SDS011;5365;51.640;8.106;2022-10-17T08:36:52;7.85;;;4.35;;
10633;SDS011;5365;51.640;8.106;2022-10-17T08:39:14;4.78;;;4.35;;
10633;SDS011;5365;51.640;8.106;2022-10-17T08:47:00;4.07;;;3.78;;
10633;SDS011;5365;51.640;8.106;2022-10-17T08:49:41;4.10;;;3.80;;
10633;SDS011;5365;51.640;8.106;2022-10-17T08:55:17;4.00;;;3.70;;
10633;SDS011;5365;51.640;8.106;2022-10-17T08:57:48;6.82;;;3.72;;
10633;SDS011;5365;51.640;8.106;2022-10-17T09:00:17;4.93;;;3.67;;
10633;SDS011;5365;51.640;8.106;2022-10-17T09:05:27;4.40;;;4.00;;
10633;SDS011;5365;51.640;8.106;2022-10-17T09:19:02;3.90;;;3.60;;
10633;SDS011;5365;51.640;8.106;2022-10-17T09:23:54;6.53;;;3.70;;
10633;SDS011;5365;51.640;8.106;2022-10-17T09:26:19;4.35;;;3.58;;
10633;SDS011;5365;51.640;8.106;2022-10-17T09:28:41;3.83;;;3.50;;
10633;SDS011;5365;51.640;8.106;2022-10-17T09:31:15;3.58;;;3.25;;
10633;SDS011;5365;51.640;8.106;2022-10-17T09:33:41;3.92;;;3.22;;
10633;SDS011;5365;51.640;8.106;2022-10-17T09:36:23;3.50;;;3.25;;
10633;SDS011;5365;51.640;8.106;2022-10-17T09:38:49;4.43;;;3.17;;
10633;SDS011;5365;51.640;8.106;2022-10-17T09:44:12;11.55;;;7.18;;
10633;SDS011;5365;51.640;8.106;2022-10-17T09:49:36;4.70;;;3.60;;
10633;SDS011;5365;51.640;8.106;2022-10-17T09:52:00;6.63;;;3.15;;
10633;SDS011;5365;51.640;8.106;2022-10-17T09:54:25;3.75;;;3.45;;
10633;SDS011;5365;51.640;8.106;2022-10-17T09:57:03;4.43;;;3.10;;
10633;SDS011;5365;51.640;8.106;2022-10-17T09:59:28;3.30;;;3.10;;
10633;SDS011;5365;51.640;8.106;2022-10-17T10:01:52;3.25;;;2.97;;
10633;SDS011;5365;51.640;8.106;2022-10-17T10:04:28;5.63;;;2.80;;
10633;SDS011;5365;51.640;8.106;2022-10-17T10:07:00;3.67;;;2.80;;
10633;SDS011;5365;51.640;8.106;2022-10-17T10:09:27;3.33;;;3.13;;
10633;SDS011;5365;51.640;8.106;2022-10-17T10:11:51;3.63;;;3.10;;
10633;SDS011;5365;51.640;8.106;2022-10-17T10:14:20;3.72;;;3.13;;
10633;SDS011;5365;51.640;8.106;2022-10-17T10:16:50;5.47;;;2.78;;
10633;SDS011;5365;51.640;8.106;2022-10-17T10:19:48;4.28;;;2.90;;
10633;SDS011;5365;51.640;8.106;2022-10-17T10:22:14;3.17;;;2.92;;
10633;SDS011;5365;51.640;8.106;2022-10-17T10:24:37;3.90;;;2.90;;
10633;SDS011;5365;51.640;8.106;2022-10-17T10:26:59;3.97;;;2.67;;
10633;SDS011;5365;51.640;8.106;2022-10-17T10:29:30;3.17;;;2.97;;
10633;SDS011;5365;51.640;8.106;2022-10-17T10:31:53;3.38;;;3.08;;
10633;SDS011;5365;51.640;8.106;2022-10-17T10:34:16;3.30;;;3.00;;
10633;SDS011;5365;51.640;8.106;2022-10-17T10:36:49;3.17;;;2.97;;
10633;SDS011;5365;51.640;8.106;2022-10-17T10:39:21;4.20;;;3.00;;
10633;SDS011;5365;51.640;8.106;2022-10-17T10:45:01;3.45;;;3.13;;
10633;SDS011;5365;51.640;8.106;2022-10-17T10:47:26;3.38;;;3.00;;
10633;SDS011;5365;51.640;8.106;2022-10-17T10:49:50;4.05;;;3.20;;
10633;SDS011;5365;51.640;8.106;2022-10-17T10:58:04;3.83;;;3.30;;
10633;SDS011;5365;51.640;8.106;2022-10-17T11:00:36;3.45;;;2.75;;
10633;SDS011;5365;51.640;8.106;2022-10-17T11:05:49;4.50;;;3.00;;
10633;SDS011;5365;51.640;8.106;2022-10-17T11:08:28;4.60;;;3.50;;
10633;SDS011;5365;51.640;8.106;2022-10-17T11:11:16;3.13;;;2.90;;
10633;SDS011;5365;51.640;8.106;2022-10-17T11:13:50;3.20;;;3.00;;
10633;SDS011;5365;51.640;8.106;2022-10-17T11:16:28;3.88;;;3.45;;
10633;SDS011;5365;51.640;8.106;2022-10-17T11:21:46;4.80;;;3.20;;
10633;SDS011;5365;51.640;8.106;2022-10-17T11:24:28;4.20;;;3.28;;
10633;SDS011;5365;51.640;8.106;2022-10-17T11:27:17;3.92;;;3.25;;
10633;SDS011;5365;51.640;8.106;2022-10-17T11:29:39;4.15;;;3.30;;
10633;SDS011;5365;51.640;8.106;2022-10-17T11:32:04;5.05;;;3.17;;
10633;SDS011;5365;51.640;8.106;2022-10-17T11:34:30;6.18;;;2.83;;
10633;SDS011;5365;51.640;8.106;2022-10-17T11:36:55;3.95;;;3.15;;
10633;SDS011;5365;51.640;8.106;2022-10-17T11:39:28;4.93;;;4.10;;
10633;SDS011;5365;51.640;8.106;2022-10-17T11:41:52;8.93;;;3.55;;
10633;SDS011;5365;51.640;8.106;2022-10-17T11:44:25;4.40;;;2.80;;
10633;SDS011;5365;51.640;8.106;2022-10-17T11:46:57;5.75;;;3.45;;
10633;SDS011;5365;51.640;8.106;2022-10-17T11:49:29;8.10;;;3.50;;
10633;SDS011;5365;51.640;8.106;2022-10-17T11:51:59;3.80;;;3.50;;
10633;SDS011;5365;51.640;8.106;2022-10-17T11:54:34;6.20;;;3.40;;
10633;SDS011;5365;51.640;8.106;2022-10-17T12:00:17;4.55;;;3.03;;
10633;SDS011;5365;51.640;8.106;2022-10-17T12:05:43;3.63;;;3.08;;
10633;SDS011;5365;51.640;8.106;2022-10-17T12:11:06;7.35;;;3.20;;
10633;SDS011;5365;51.640;8.106;2022-10-17T12:13:50;3.92;;;2.90;;
10633;SDS011;5365;51.640;8.106;2022-10-17T12:18:41;4.32;;;2.90;;
10633;SDS011;5365;51.640;8.106;2022-10-17T12:21:03;3.33;;;3.03;;
10633;SDS011;5365;51.640;8.106;2022-10-17T12:23:28;5.63;;;3.00;;
10633;SDS011;5365;51.640;8.106;2022-10-17T12:26:04;4.75;;;2.97;;
10633;SDS011;5365;51.640;8.106;2022-10-17T12:28:29;3.80;;;3.05;;
10633;SDS011;5365;51.640;8.106;2022-10-17T12:33:18;2.97;;;2.60;;
10633;SDS011;5365;51.640;8.106;2022-10-17T12:38:37;4.47;;;3.45;;
10633;SDS011;5365;51.640;8.106;2022-10-17T12:40:59;6.28;;;3.72;;
10633;SDS011;5365;51.640;8.106;2022-10-17T12:46:08;3.71;;;3.31;;
10633;SDS011;5365;51.640;8.106;2022-10-17T12:53:55;5.30;;;2.95;;
10633;SDS011;5365;51.640;8.106;2022-10-17T12:56:19;4.32;;;3.15;;
10633;SDS011;5365;51.640;8.106;2022-10-17T12:58:49;3.67;;;3.38;;
10633;SDS011;5365;51.640;8.106;2022-10-17T13:01:30;3.42;;;2.90;;
10633;SDS011;5365;51.640;8.106;2022-10-17T13:03:52;5.25;;;3.60;;
10633;SDS011;5365;51.640;8.106;2022-10-17T13:06:19;3.55;;;2.72;;
10633;SDS011;5365;51.640;8.106;2022-10-17T13:08:56;4.60;;;3.15;;
10633;SDS011;5365;51.640;8.106;2022-10-17T13:11:24;4.38;;;2.95;;
10633;SDS011;5365;51.640;8.106;2022-10-17T13:13:48;3.25;;;2.85;;
10633;SDS011;5365;51.640;8.106;2022-10-17T13:18:52;4.72;;;3.33;;
10633;SDS011;5365;51.640;8.106;2022-10-17T13:21:14;3.75;;;2.90;;
10633;SDS011;5365;51.640;8.106;2022-10-17T13:23:37;4.75;;;3.30;;
10633;SDS011;5365;51.640;8.106;2022-10-17T13:28:41;7.18;;;3.45;;
10633;SDS011;5365;51.640;8.106;2022-10-17T13:31:03;4.25;;;3.40;;
10633;SDS011;5365;51.640;8.106;2022-10-17T13:33:33;4.32;;;3.13;;
10633;SDS011;5365;51.640;8.106;2022-10-17T13:35:58;4.43;;;3.03;;
10633;SDS011;5365;51.640;8.106;2022-10-17T13:38:28;4.40;;;2.83;;
10633;SDS011;5365;51.640;8.106;2022-10-17T13:40:52;4.00;;;3.13;;
10633;SDS011;5365;51.640;8.106;2022-10-17T13:43:21;3.67;;;3.30;;
10633;SDS011;5365;51.640;8.106;2022-10-17T13:45:53;3.58;;;2.97;;
10633;SDS011;5365;51.640;8.106;2022-10-17T13:48:24;3.33;;;2.80;;
10633;SDS011;5365;51.640;8.106;2022-10-17T13:50:48;4.78;;;3.25;;
10633;SDS011;5365;51.640;8.106;2022-10-17T13:55:57;3.75;;;3.00;;
10633;SDS011;5365;51.640;8.106;2022-10-17T13:58:46;4.93;;;3.38;;
10633;SDS011;5365;51.640;8.106;2022-10-17T14:01:10;3.47;;;3.17;;
10633;SDS011;5365;51.640;8.106;2022-10-17T14:03:33;3.72;;;3.40;;
10633;SDS011;5365;51.640;8.106;2022-10-17T14:06:03;7.88;;;3.35;;
10633;SDS011;5365;51.640;8.106;2022-10-17T14:08:30;5.40;;;3.58;;
10633;SDS011;5365;51.640;8.106;2022-10-17T14:10:52;3.63;;;3.33;;
10633;SDS011;5365;51.640;8.106;2022-10-17T14:13:32;3.50;;;3.30;;
10633;SDS011;5365;51.640;8.106;2022-10-17T14:15:57;4.15;;;3.58;;
10633;SDS011;5365;51.640;8.106;2022-10-17T14:18:25;3.88;;;3.47;;
10633;SDS011;5365;51.640;8.106;2022-10-17T14:20:50;5.88;;;3.20;;
10633;SDS011;5365;51.640;8.106;2022-10-17T14:23:34;3.92;;;3.50;;
10633;SDS011;5365;51.640;8.106;2022-10-17T14:26:31;5.78;;;3.70;;
10633;SDS011;5365;51.640;8.106;2022-10-17T14:29:20;7.55;;;3.40;;
10633;SDS011;5365;51.640;8.106;2022-10-17T14:31:34;5.38;;;3.67;;
10633;SDS011;5365;51.640;8.106;2022-10-17T14:33:57;7.78;;;4.07;;
10633;SDS011;5365;51.640;8.106;2022-10-17T14:36:20;6.38;;;3.72;;
10633;SDS011;5365;51.640;8.106;2022-10-17T14:38:50;4.07;;;3.45;;
10633;SDS011;5365;51.640;8.106;2022-10-17T14:41:22;6.75;;;3.88;;
10633;SDS011;5365;51.640;8.106;2022-10-17T14:44:05;5.55;;;3.03;;
10633;SDS011;5365;51.640;8.106;2022-10-17T14:46:28;4.82;;;3.30;;
10633;SDS011;5365;51.640;8.106;2022-10-17T14:49:37;4.30;;;3.13;;
10633;SDS011;5365;51.640;8.106;2022-10-17T14:51:38;3.88;;;3.47;;
10633;SDS011;5365;51.640;8.106;2022-10-17T14:54:21;4.07;;;3.13;;
10633;SDS011;5365;51.640;8.106;2022-10-17T14:56:48;5.10;;;3.35;;
10633;SDS011;5365;51.640;8.106;2022-10-17T14:59:12;3.05;;;2.75;;
10633;SDS011;5365;51.640;8.106;2022-10-17T15:01:42;3.92;;;3.08;;
10633;SDS011;5365;51.640;8.106;2022-10-17T15:04:03;4.18;;;3.05;;
10633;SDS011;5365;51.640;8.106;2022-10-17T15:06:26;3.50;;;3.15;;
10633;SDS011;5365;51.640;8.106;2022-10-17T15:08:49;3.97;;;3.10;;
10633;SDS011;5365;51.640;8.106;2022-10-17T15:11:11;5.10;;;2.85;;
10633;SDS011;5365;51.640;8.106;2022-10-17T15:13:33;4.63;;;2.88;;
10633;SDS011;5365;51.640;8.106;2022-10-17T15:15:59;3.15;;;2.85;;
10633;SDS011;5365;51.640;8.106;2022-10-17T15:18:22;3.92;;;2.80;;
10633;SDS011;5365;51.640;8.106;2022-10-17T15:20:43;4.13;;;3.45;;
10633;SDS011;5365;51.640;8.106;2022-10-17T15:23:05;5.75;;;3.15;;
10633;SDS011;5365;51.640;8.106;2022-10-17T15:25:27;7.03;;;4.05;;
10633;SDS011;5365;51.640;8.106;2022-10-17T15:27:50;11.18;;;3.63;;
10633;SDS011;5365;51.640;8.106;2022-10-17T15:30:35;8.65;;;3.95;;
10633;SDS011;5365;51.640;8.106;2022-10-17T15:32:55;7.63;;;3.55;;
10633;SDS011;5365;51.640;8.106;2022-10-17T15:35:22;8.27;;;3.78;;
10633;SDS011;5365;51.640;8.106;2022-10-17T15:37:44;6.88;;;3.75;;
10633;SDS011;5365;51.640;8.106;2022-10-17T15:40:12;12.32;;;4.18;;
10633;SDS011;5365;51.640;8.106;2022-10-17T15:42:38;7.63;;;3.78;;
10633;SDS011;5365;51.640;8.106;2022-10-17T15:45:00;3.65;;;3.00;;
10633;SDS011;5365;51.640;8.106;2022-10-17T15:47:28;6.30;;;3.72;;
10633;SDS011;5365;51.640;8.106;2022-10-17T15:49:51;6.10;;;3.45;;
10633;SDS011;5365;51.640;8.106;2022-10-17T15:52:14;5.25;;;3.42;;
10633;SDS011;5365;51.640;8.106;2022-10-17T15:54:36;5.35;;;3.63;;
10633;SDS011;5365;51.640;8.106;2022-10-17T15:56:58;8.13;;;3.58;;
10633;SDS011;5365;51.640;8.106;2022-10-17T15:59:21;3.33;;;2.92;;
10633;SDS011;5365;51.640;8.106;2022-10-17T16:01:43;4.82;;;3.05;;
10633;SDS011;5365;51.640;8.106;2022-10-17T16:04:05;8.35;;;3.58;;
10633;SDS011;5365;51.640;8.106;2022-10-17T16:06:27;4.85;;;3.78;;
10633;SDS011;5365;51.640;8.106;2022-10-17T16:08:49;3.40;;;3.10;;
10633;SDS011;5365;51.640;8.106;2022-10-17T16:11:45;6.47;;;3.38;;
10633;SDS011;5365;51.640;8.106;2022-10-17T16:14:03;4.53;;;3.70;;
10633;SDS011;5365;51.640;8.106;2022-10-17T16:16:30;3.60;;;3.30;;
10633;SDS011;5365;51.640;8.106;2022-10-17T16:18:52;4.00;;;3.50;;
10633;SDS011;5365;51.640;8.106;2022-10-17T16:21:14;4.13;;;3.25;;
10633;SDS011;5365;51.640;8.106;2022-10-17T16:23:36;4.53;;;3.38;;
10633;SDS011;5365;51.640;8.106;2022-10-17T16:25:58;5.60;;;3.70;;
10633;SDS011;5365;51.640;8.106;2022-10-17T16:28:20;5.75;;;3.65;;
10633;SDS011;5365;51.640;8.106;2022-10-17T16:30:42;5.55;;;3.63;;
10633;SDS011;5365;51.640;8.106;2022-10-17T16:33:05;4.28;;;3.78;;
10633;SDS011;5365;51.640;8.106;2022-10-17T16:35:28;5.38;;;3.60;;
10633;SDS011;5365;51.640;8.106;2022-10-17T16:37:51;7.82;;;3.88;;
10633;SDS011;5365;51.640;8.106;2022-10-17T16:40:13;6.38;;;4.25;;
10633;SDS011;5365;51.640;8.106;2022-10-17T16:42:35;6.30;;;4.22;;
10633;SDS011;5365;51.640;8.106;2022-10-17T16:44:57;5.35;;;4.25;;